Time;durP1;ratioP1;P1;durP2;ratioP2;P2;SDS_P1;SDS_P2;PMS_P1;PMS_P2;Temp;Humidity;BMP_temperature;BMP_pressure;BME280_temperature;BME280_humidity;BME280_pressure;Samples;Min_cycle;Max_cycle;Signal;HPM_P1;HPM_P2
2021/06/08 00:02:07;;;;;;;4.18;3.88;;;;;;;;;;5095886;28;20032;-75
2021/06/08 00:04:32;;;;;;;5.68;3.75;;;;;;;;;;5077982;28;20024;-75
2021/06/08 00:06:57;;;;;;;4.30;4.00;;;;;;;;;;5096009;28;20035;-75
2021/06/08 00:09:24;;;;;;;4.68;4.28;;;;;;;;;;5095861;28;20024;-76
2021/06/08 00:11:50;;;;;;;4.43;3.90;;;;;;;;;;5095825;28;20032;-75
2021/06/08 00:14:17;;;;;;;4.05;3.75;;;;;;;;;;5095595;28;20037;-76
2021/06/08 00:16:42;;;;;;;4.22;3.55;;;;;;;;;;5095446;28;20024;-76
2021/06/08 00:19:08;;;;;;;3.55;3.25;;;;;;;;;;5095336;28;20462;-76
2021/06/08 00:21:33;;;;;;;3.40;3.20;;;;;;;;;;5095435;28;20031;-76
2021/06/08 00:24:00;;;;;;;3.60;3.40;;;;;;;;;;5095495;28;20095;-76
2021/06/08 00:26:26;;;;;;;3.58;3.38;;;;;;;;;;5077303;28;20032;-76
2021/06/08 00:28:52;;;;;;;5.40;3.80;;;;;;;;;;5095492;28;20446;-73
2021/06/08 00:31:17;;;;;;;3.97;3.67;;;;;;;;;;5077218;28;20130;-73
2021/06/08 00:33:43;;;;;;;3.90;3.60;;;;;;;;;;5095337;28;20062;-73
2021/06/08 00:36:10;;;;;;;4.20;3.90;;;;;;;;;;5095338;28;20110;-72
2021/06/08 00:38:36;;;;;;;4.45;4.05;;;;;;;;;;5095161;28;20019;-72
2021/06/08 00:41:01;;;;;;;4.35;3.60;;;;;;;;;;5095118;28;20020;-72
2021/06/08 00:43:27;;;;;;;3.83;3.63;;;;;;;;;;5095042;28;20023;-71
2021/06/08 00:45:53;;;;;;;4.25;3.85;;;;;;;;;;5094710;28;20177;-71
2021/06/08 00:48:19;;;;;;;5.35;3.65;;;;;;;;;;5076920;28;20085;-72
2021/06/08 00:50:44;;;;;;;4.10;3.75;;;;;;;;;;5093793;28;20524;-72
2021/06/08 00:53:09;;;;;;;3.60;3.40;;;;;;;;;;5076679;28;20027;-71
2021/06/08 00:55:35;;;;;;;3.45;3.13;;;;;;;;;;5094817;28;20024;-76
2021/06/08 00:58:00;;;;;;;4.05;3.75;;;;;;;;;;5094605;28;20031;-76
2021/06/08 01:00:28;;;;;;;3.08;2.88;;;;;;;;;;5076508;28;20120;-76
2021/06/08 01:02:53;;;;;;;3.65;3.35;;;;;;;;;;5094523;28;20016;-76
2021/06/08 01:05:18;;;;;;;3.50;3.30;;;;;;;;;;5094637;28;20047;-76
2021/06/08 01:07:44;;;;;;;3.85;3.55;;;;;;;;;;5094575;28;20020;-76
2021/06/08 01:10:10;;;;;;;3.60;3.40;;;;;;;;;;5094472;28;20056;-76
2021/06/08 01:12:36;;;;;;;3.70;3.40;;;;;;;;;;5094499;28;20020;-76
2021/06/08 01:15:02;;;;;;;3.40;3.20;;;;;;;;;;5094233;28;20027;-76
2021/06/08 01:17:28;;;;;;;3.50;3.20;;;;;;;;;;5094525;28;20474;-76
2021/06/08 01:19:54;;;;;;;3.75;3.25;;;;;;;;;;5076224;28;20070;-76
2021/06/08 01:22:19;;;;;;;3.70;3.42;;;;;;;;;;5094335;28;20019;-76
2021/06/08 01:24:45;;;;;;;3.40;3.20;;;;;;;;;;5094449;28;20520;-75
2021/06/08 01:27:11;;;;;;;3.75;3.55;;;;;;;;;;5094591;28;20019;-76
2021/06/08 01:29:37;;;;;;;3.60;3.28;;;;;;;;;;5076207;28;20039;-76
2021/06/08 01:32:04;;;;;;;3.53;3.33;;;;;;;;;;5094301;28;20020;-76
2021/06/08 01:34:31;;;;;;;3.60;3.17;;;;;;;;;;5076256;28;20032;-76
2021/06/08 01:36:56;;;;;;;3.35;3.15;;;;;;;;;;5094093;28;20027;-76
2021/06/08 01:39:22;;;;;;;3.60;3.40;;;;;;;;;;5094062;28;20028;-75
2021/06/08 01:41:49;;;;;;;3.65;3.45;;;;;;;;;;5075551;28;20012;-75
2021/06/08 01:44:14;;;;;;;3.65;3.40;;;;;;;;;;5093592;28;20024;-73
2021/06/08 01:46:40;;;;;;;5.53;3.35;;;;;;;;;;5076097;28;20474;-73
2021/06/08 01:49:05;;;;;;;3.30;3.00;;;;;;;;;;5093682;28;20436;-73
2021/06/08 01:51:35;;;;;;;3.60;3.30;;;;;;;;;;5093786;28;20056;-73
2021/06/08 01:54:08;;;;;;;3.25;3.05;;;;;;;;;;5093675;28;20032;-76
2021/06/08 01:56:34;;;;;;;3.72;3.45;;;;;;;;;;5075425;28;20024;-76
2021/06/08 01:59:19;;;;;;;3.78;3.35;;;;;;;;;;5093813;28;20023;-76
2021/06/08 02:01:50;;;;;;;3.20;3.00;;;;;;;;;;5093223;28;20028;-72
2021/06/08 02:04:21;;;;;;;3.47;3.08;;;;;;;;;;5075536;28;20463;-72
2021/06/08 02:06:52;;;;;;;2.83;2.65;;;;;;;;;;5093700;28;20394;-72
2021/06/08 02:09:17;;;;;;;;;;;;;;;;;;5093855;28;20078;-72
2021/06/08 02:11:51;;;;;;;3.23;3.03;;;;;;;;;;5093412;28;19904;-72
2021/06/08 02:14:19;;;;;;;3.60;3.30;;;;;;;;;;5075284;28;20416;-73
2021/06/08 02:16:46;;;;;;;4.80;3.20;;;;;;;;;;5093500;28;20024;-73
2021/06/08 02:19:13;;;;;;;3.15;2.90;;;;;;;;;;5093219;28;20119;-73
2021/06/08 02:21:40;;;;;;;3.67;3.20;;;;;;;;;;5093413;28;20089;-75
2021/06/08 02:24:10;;;;;;;3.65;3.35;;;;;;;;;;5075064;28;20085;-76
2021/06/08 02:26:37;;;;;;;3.28;2.97;;;;;;;;;;5093371;28;20024;-76
2021/06/08 02:29:03;;;;;;;2.90;2.70;;;;;;;;;;5093202;28;20039;-76
2021/06/08 02:31:30;;;;;;;3.00;2.90;;;;;;;;;;5093512;28;20386;-75
2021/06/08 02:33:56;;;;;;;3.20;2.97;;;;;;;;;;5093013;28;20020;-73
2021/06/08 02:36:21;;;;;;;3.22;3.03;;;;;;;;;;5093411;28;20020;-72
2021/06/08 02:38:47;;;;;;;2.58;2.47;;;;;;;;;;5093270;28;20040;-72
2021/06/08 02:41:13;;;;;;;3.08;2.80;;;;;;;;;;5075177;28;20107;-73
2021/06/08 02:43:39;;;;;;;3.42;3.00;;;;;;;;;;5074912;28;20028;-73
2021/06/08 02:46:07;;;;;;;2.95;2.75;;;;;;;;;;5093136;28;20028;-73
2021/06/08 02:48:33;;;;;;;3.03;2.83;;;;;;;;;;5093221;28;20024;-74
2021/06/08 02:50:58;;;;;;;3.08;2.53;;;;;;;;;;5093022;28;20020;-74
2021/06/08 02:53:26;;;;;;;3.13;2.92;;;;;;;;;;5093076;28;20020;-73
2021/06/08 02:55:57;;;;;;;3.05;2.85;;;;;;;;;;5093129;28;20044;-73
2021/06/08 02:58:24;;;;;;;4.13;2.80;;;;;;;;;;5093068;28;20033;-73
2021/06/08 03:00:50;;;;;;;3.20;3.00;;;;;;;;;;5093174;28;20009;-76
2021/06/08 03:03:24;;;;;;;2.45;2.25;;;;;;;;;;5074867;28;20035;-76
2021/06/08 03:05:53;;;;;;;3.75;3.20;;;;;;;;;;5075000;28;20032;-76
2021/06/08 03:08:23;;;;;;;3.47;3.20;;;;;;;;;;5093135;28;20058;-76
2021/06/08 03:10:50;;;;;;;3.58;3.38;;;;;;;;;;5092841;28;20028;-74
2021/06/08 03:13:17;;;;;;;3.45;3.25;;;;;;;;;;5092874;28;20055;-75
2021/06/08 03:15:45;;;;;;;5.25;3.15;;;;;;;;;;5077600;28;20038;-76
2021/06/08 03:18:11;;;;;;;3.40;3.10;;;;;;;;;;5096855;28;20458;-76
2021/06/08 03:20:44;;;;;;;3.10;2.90;;;;;;;;;;5078378;28;20028;-76
2021/06/08 03:23:11;;;;;;;3.13;2.80;;;;;;;;;;5096828;28;20079;-76
2021/06/08 03:25:37;;;;;;;2.92;2.72;;;;;;;;;;5097443;28;20442;-76
2021/06/08 03:28:03;;;;;;;2.83;2.63;;;;;;;;;;5096746;28;20031;-76
2021/06/08 03:30:29;;;;;;;2.67;2.58;;;;;;;;;;5095796;28;20099;-76
2021/06/08 03:32:55;;;;;;;3.47;3.28;;;;;;;;;;5096655;28;20028;-76
2021/06/08 03:35:22;;;;;;;4.25;2.75;;;;;;;;;;5096387;28;20103;-76
2021/06/08 03:37:48;;;;;;;3.05;2.85;;;;;;;;;;5096209;28;20039;-76
2021/06/08 03:40:13;;;;;;;2.90;2.70;;;;;;;;;;5078115;28;20017;-76
2021/06/08 03:42:42;;;;;;;3.08;2.88;;;;;;;;;;5096171;28;20382;-76
2021/06/08 03:45:12;;;;;;;2.85;2.67;;;;;;;;;;5076842;28;20052;-76
2021/06/08 03:47:39;;;;;;;3.20;2.97;;;;;;;;;;5096096;28;20059;-76
2021/06/08 03:50:05;;;;;;;3.70;3.50;;;;;;;;;;5078114;28;20478;-76
2021/06/08 03:52:31;;;;;;;3.88;3.53;;;;;;;;;;5096174;28;20039;-76
2021/06/08 03:54:56;;;;;;;4.05;3.80;;;;;;;;;;5096243;28;20020;-75
2021/06/08 03:57:28;;;;;;;4.05;3.85;;;;;;;;;;5095892;28;20044;-75
2021/06/08 04:00:00;;;;;;;4.10;3.70;;;;;;;;;;5096069;28;20059;-76
2021/06/08 04:02:26;;;;;;;3.47;3.17;;;;;;;;;;5096137;28;20024;-76
2021/06/08 04:04:52;;;;;;;4.03;3.83;;;;;;;;;;5096553;28;20016;-76
2021/06/08 04:07:18;;;;;;;3.60;3.40;;;;;;;;;;5078262;28;20031;-76
2021/06/08 04:09:53;;;;;;;3.90;3.60;;;;;;;;;;5095968;28;20016;-76
2021/06/08 04:12:21;;;;;;;4.70;4.22;;;;;;;;;;5095974;28;20024;-76
2021/06/08 04:14:48;;;;;;;4.70;4.30;;;;;;;;;;5078312;28;20020;-76
2021/06/08 04:17:16;;;;;;;4.90;4.50;;;;;;;;;;5095422;28;20024;-76
2021/06/08 04:19:43;;;;;;;4.40;4.00;;;;;;;;;;5096244;28;20064;-76
2021/06/08 04:22:09;;;;;;;5.15;3.95;;;;;;;;;;5095988;28;20462;-76
2021/06/08 04:24:35;;;;;;;4.50;4.15;;;;;;;;;;5095377;28;20103;-76
2021/06/08 04:27:01;;;;;;;4.93;4.40;;;;;;;;;;5094785;28;20154;-76
2021/06/08 04:29:27;;;;;;;4.80;4.40;;;;;;;;;;5095191;28;20073;-76
2021/06/08 04:31:53;;;;;;;4.38;3.97;;;;;;;;;;5077051;28;20039;-76
2021/06/08 04:34:19;;;;;;;4.63;4.35;;;;;;;;;;5095109;28;20020;-76
2021/06/08 04:36:45;;;;;;;4.32;4.10;;;;;;;;;;5060224;28;20039;-77
2021/06/08 04:39:10;;;;;;;4.18;3.90;;;;;;;;;;5076929;28;20405;-76
2021/06/08 04:41:36;;;;;;;4.78;4.43;;;;;;;;;;5095012;28;20026;-76
2021/06/08 04:44:03;;;;;;;4.78;4.10;;;;;;;;;;5076501;28;20032;-76
2021/06/08 04:46:29;;;;;;;4.72;4.15;;;;;;;;;;5095023;28;20031;-76
2021/06/08 04:48:55;;;;;;;4.20;3.90;;;;;;;;;;5076797;28;20024;-76
2021/06/08 04:51:20;;;;;;;4.30;3.85;;;;;;;;;;5094656;28;20035;-76
2021/06/08 04:53:45;;;;;;;5.43;3.53;;;;;;;;;;5094536;28;20038;-76
2021/06/08 04:56:11;;;;;;;4.40;4.07;;;;;;;;;;5059964;28;20063;-76
2021/06/08 04:58:37;;;;;;;6.10;4.55;;;;;;;;;;5076761;28;20024;-76
2021/06/08 05:01:02;;;;;;;4.88;4.38;;;;;;;;;;5094630;28;20028;-76
2021/06/08 05:03:31;;;;;;;4.60;4.13;;;;;;;;;;5094526;28;20022;-76
2021/06/08 05:05:58;;;;;;;5.55;4.57;;;;;;;;;;5076358;28;20028;-76
2021/06/08 05:08:26;;;;;;;5.22;4.78;;;;;;;;;;5076364;28;20424;-76
2021/06/08 05:11:28;;;;;;;5.25;4.85;;;;;;;;;;5094549;28;20024;-76
2021/06/08 05:13:54;;;;;;;5.82;5.20;;;;;;;;;;5012444;28;20117;-76
2021/06/08 05:16:21;;;;;;;7.00;4.63;;;;;;;;;;5077270;28;20453;-76
2021/06/08 05:18:48;;;;;;;5.00;4.60;;;;;;;;;;5076198;28;20060;-76
2021/06/08 05:21:16;;;;;;;5.80;4.38;;;;;;;;;;5094232;28;20020;-76
2021/06/08 05:23:41;;;;;;;5.85;5.35;;;;;;;;;;5076152;28;20055;-76
2021/06/08 05:26:10;;;;;;;5.22;4.72;;;;;;;;;;5094148;28;20096;-76
2021/06/08 05:28:38;;;;;;;6.72;5.03;;;;;;;;;;5076061;28;20103;-76
2021/06/08 05:31:03;;;;;;;6.50;5.80;;;;;;;;;;5075983;28;20020;-76
2021/06/08 05:33:29;;;;;;;7.50;5.65;;;;;;;;;;5093927;28;20032;-76
2021/06/08 05:35:55;;;;;;;8.23;5.93;;;;;;;;;;5093962;28;20020;-76
2021/06/08 05:38:31;;;;;;;8.65;5.85;;;;;;;;;;5093130;28;20509;-76
2021/06/08 05:41:00;;;;;;;8.48;5.93;;;;;;;;;;5093883;28;20032;-76
2021/06/08 05:43:26;;;;;;;6.30;5.53;;;;;;;;;;5075647;28;20417;-76
2021/06/08 05:45:51;;;;;;;9.68;5.55;;;;;;;;;;5093544;28;20040;-76
2021/06/08 05:48:21;;;;;;;6.90;5.28;;;;;;;;;;5093858;28;20039;-76
2021/06/08 05:50:47;;;;;;;6.80;4.97;;;;;;;;;;5093656;28;20034;-76
2021/06/08 05:53:15;;;;;;;7.50;4.68;;;;;;;;;;5093641;28;20269;-76
2021/06/08 05:55:43;;;;;;;7.10;5.20;;;;;;;;;;5093727;28;20048;-76
2021/06/08 05:58:08;;;;;;;7.68;4.57;;;;;;;;;;5093499;28;20028;-76
2021/06/08 06:00:34;;;;;;;5.55;4.30;;;;;;;;;;5093462;28;20028;-76
2021/06/08 06:03:00;;;;;;;6.55;5.25;;;;;;;;;;5075291;28;20020;-76
2021/06/08 06:05:26;;;;;;;5.20;4.70;;;;;;;;;;5075382;28;20020;-76
2021/06/08 06:07:51;;;;;;;6.13;4.70;;;;;;;;;;5093388;28;20486;-76
2021/06/08 06:10:17;;;;;;;8.07;4.47;;;;;;;;;;5093436;28;20398;-76
2021/06/08 06:12:43;;;;;;;5.07;4.32;;;;;;;;;;5093454;28;20019;-76
2021/06/08 06:15:09;;;;;;;6.45;4.35;;;;;;;;;;5093279;28;20028;-76
2021/06/08 06:17:36;;;;;;;7.55;4.50;;;;;;;;;;5075091;28;20107;-76
2021/06/08 06:20:03;;;;;;;9.43;4.65;;;;;;;;;;5075208;28;20055;-76
2021/06/08 06:22:28;;;;;;;7.10;4.40;;;;;;;;;;5075028;28;20528;-76
2021/06/08 06:24:54;;;;;;;5.28;4.20;;;;;;;;;;5093219;28;20024;-76
2021/06/08 06:27:19;;;;;;;6.82;4.47;;;;;;;;;;5093161;28;20012;-76
2021/06/08 06:29:47;;;;;;;7.15;5.53;;;;;;;;;;5093120;28;20504;-76
2021/06/08 06:32:12;;;;;;;11.20;5.47;;;;;;;;;;5093150;28;20462;-76
2021/06/08 06:34:38;;;;;;;9.40;5.20;;;;;;;;;;5093027;28;20081;-76
2021/06/08 06:37:05;;;;;;;6.55;5.00;;;;;;;;;;5092964;28;20020;-76
2021/06/08 06:39:32;;;;;;;9.40;4.63;;;;;;;;;;5093030;28;20115;-76
2021/06/08 06:42:00;;;;;;;7.40;5.07;;;;;;;;;;5058299;28;20411;-76
2021/06/08 06:44:25;;;;;;;9.93;4.95;;;;;;;;;;5092409;28;20035;-76
2021/06/08 06:46:52;;;;;;;8.57;4.72;;;;;;;;;;5093326;28;20040;-76
2021/06/08 06:49:17;;;;;;;6.75;5.20;;;;;;;;;;5095590;28;20623;-76
2021/06/08 06:51:45;;;;;;;7.45;4.55;;;;;;;;;;5097116;28;20061;-76
2021/06/08 06:54:12;;;;;;;8.38;5.18;;;;;;;;;;5078833;28;20028;-76
2021/06/08 06:56:38;;;;;;;9.82;5.43;;;;;;;;;;5078669;28;20482;-76
2021/06/08 06:59:05;;;;;;;7.68;5.20;;;;;;;;;;5097141;28;20028;-76
2021/06/08 07:01:31;;;;;;;5.40;4.88;;;;;;;;;;5096897;28;20012;-76
2021/06/08 07:03:57;;;;;;;8.10;4.75;;;;;;;;;;5096968;28;20016;-76
2021/06/08 07:06:23;;;;;;;7.10;4.90;;;;;;;;;;5096731;28;20459;-76
2021/06/08 07:08:49;;;;;;;5.10;4.22;;;;;;;;;;5096845;28;20030;-76
2021/06/08 07:11:15;;;;;;;5.63;4.05;;;;;;;;;;5078597;28;20016;-76
2021/06/08 07:13:40;;;;;;;6.97;4.55;;;;;;;;;;5078543;28;20385;-76
2021/06/08 07:16:06;;;;;;;7.03;4.28;;;;;;;;;;5061779;28;20078;-76
2021/06/08 07:18:32;;;;;;;4.53;4.13;;;;;;;;;;5096582;28;20035;-75
2021/06/08 07:21:00;;;;;;;5.47;3.60;;;;;;;;;;5096561;28;20097;-76
2021/06/08 07:23:27;;;;;;;4.45;3.70;;;;;;;;;;5096504;28;20016;-76
2021/06/08 07:25:52;;;;;;;4.20;3.70;;;;;;;;;;5096453;28;20015;-76
2021/06/08 07:28:19;;;;;;;3.78;3.00;;;;;;;;;;5096383;28;20032;-76
2021/06/08 07:30:45;;;;;;;2.88;2.67;;;;;;;;;;5096427;28;20027;-76
2021/06/08 07:33:11;;;;;;;5.03;2.45;;;;;;;;;;5096525;28;20381;-76
2021/06/08 07:35:58;;;;;;;2.70;2.50;;;;;;;;;;5078332;28;20020;-76
2021/06/08 07:38:44;;;;;;;3.35;2.63;;;;;;;;;;5077615;28;20413;-76
2021/06/08 07:41:11;;;;;;;4.78;3.03;;;;;;;;;;5064257;28;20113;-75
2021/06/08 07:43:41;;;;;;;2.67;2.47;;;;;;;;;;5096095;28;20039;-75
2021/06/08 07:46:14;;;;;;;2.90;2.55;;;;;;;;;;5078135;28;20028;-75
2021/06/08 07:48:42;;;;;;;3.00;2.20;;;;;;;;;;5096039;28;20035;-76
2021/06/08 07:51:08;;;;;;;2.88;2.58;;;;;;;;;;5096005;28;20012;-76
2021/06/08 07:53:34;;;;;;;2.47;2.25;;;;;;;;;;5095908;28;20115;-76
2021/06/08 07:56:01;;;;;;;2.40;2.30;;;;;;;;;;5095995;28;20044;-76
2021/06/08 07:58:27;;;;;;;4.00;2.65;;;;;;;;;;5095895;28;20036;-76
2021/06/08 08:00:57;;;;;;;2.63;2.15;;;;;;;;;;5095072;28;20394;-76
2021/06/08 08:03:26;;;;;;;2.25;2.13;;;;;;;;;;5095825;28;20020;-76
2021/06/08 08:05:53;;;;;;;2.40;2.20;;;;;;;;;;5077235;28;20486;-76
2021/06/08 08:08:19;;;;;;;2.42;2.30;;;;;;;;;;5077436;28;20445;-76
2021/06/08 08:10:45;;;;;;;3.95;2.38;;;;;;;;;;5060795;28;20081;-76
2021/06/08 08:13:12;;;;;;;2.60;2.40;;;;;;;;;;5095510;28;20494;-76
2021/06/08 08:15:37;;;;;;;3.28;2.47;;;;;;;;;;5095636;28;20073;-76
2021/06/08 08:18:04;;;;;;;4.45;2.55;;;;;;;;;;5095623;28;20024;-76
2021/06/08 08:20:46;;;;;;;2.40;2.25;;;;;;;;;;5077402;28;20038;-76
2021/06/08 08:23:13;;;;;;;2.72;2.45;;;;;;;;;;5095662;28;20050;-76
2021/06/08 08:25:38;;;;;;;4.28;2.75;;;;;;;;;;5077167;28;20476;-75
2021/06/08 08:28:05;;;;;;;3.08;2.88;;;;;;;;;;5095249;28;20039;-76
2021/06/08 08:30:31;;;;;;;4.40;2.58;;;;;;;;;;5095288;28;20101;-76
2021/06/08 08:32:56;;;;;;;3.45;2.20;;;;;;;;;;5077222;28;20541;-76
2021/06/08 08:35:21;;;;;;;2.70;2.50;;;;;;;;;;5095103;28;20076;-76
2021/06/08 08:37:47;;;;;;;2.88;2.58;;;;;;;;;;5094940;28;20482;-76
2021/06/08 08:40:13;;;;;;;2.70;2.42;;;;;;;;;;5077120;28;20062;-76
2021/06/08 08:42:38;;;;;;;2.70;2.50;;;;;;;;;;5095168;28;20069;-76
2021/06/08 08:45:04;;;;;;;2.67;2.47;;;;;;;;;;5094464;28;20025;-75
2021/06/08 08:47:30;;;;;;;4.00;2.53;;;;;;;;;;5094892;28;20032;-76
2021/06/08 08:49:55;;;;;;;3.10;2.80;;;;;;;;;;5094884;28;20052;-76
2021/06/08 08:52:21;;;;;;;2.75;2.58;;;;;;;;;;5076813;28;20028;-76
2021/06/08 08:54:47;;;;;;;3.17;2.97;;;;;;;;;;5059923;28;20013;-76
2021/06/08 08:57:16;;;;;;;3.10;2.80;;;;;;;;;;5094709;28;20115;-76
2021/06/08 08:59:41;;;;;;;3.08;2.88;;;;;;;;;;5094406;28;20447;-75
2021/06/08 09:02:08;;;;;;;3.15;2.90;;;;;;;;;;5094690;28;20114;-76
2021/06/08 09:04:33;;;;;;;3.00;2.80;;;;;;;;;;5076495;28;20012;-76
2021/06/08 09:06:59;;;;;;;2.72;2.53;;;;;;;;;;5094543;28;20417;-75
2021/06/08 09:09:24;;;;;;;2.75;2.55;;;;;;;;;;5094627;28;20031;-75
2021/06/08 09:11:50;;;;;;;3.28;2.80;;;;;;;;;;5093376;28;20039;-76
2021/06/08 09:14:16;;;;;;;3.10;2.85;;;;;;;;;;5094228;28;20027;-75
2021/06/08 09:16:41;;;;;;;3.33;3.03;;;;;;;;;;5076027;28;20024;-76
2021/06/08 09:19:08;;;;;;;2.90;2.70;;;;;;;;;;5094219;28;20080;-75
2021/06/08 09:21:37;;;;;;;3.20;3.00;;;;;;;;;;5094376;28;20031;-75
2021/06/08 09:24:19;;;;;;;2.80;2.60;;;;;;;;;;5094225;28;20024;-76
2021/06/08 09:26:48;;;;;;;3.40;2.70;;;;;;;;;;5094179;28;20024;-75
2021/06/08 09:29:25;;;;;;;4.70;3.03;;;;;;;;;;5094239;28;20099;-75
2021/06/08 09:32:10;;;;;;;2.70;2.60;;;;;;;;;;5094209;28;20028;-75
2021/06/08 09:34:53;;;;;;;2.67;2.47;;;;;;;;;;5127481;27;20781;-76
2021/06/08 09:37:39;;;;;;;3.20;3.00;;;;;;;;;;5111010;28;20148;-76
2021/06/08 09:40:24;;;;;;;3.67;3.05;;;;;;;;;;5110794;28;20081;-76
2021/06/08 09:43:01;;;;;;;3.00;2.80;;;;;;;;;;5109730;28;20028;-76
2021/06/08 09:45:26;;;;;;;4.45;3.00;;;;;;;;;;5110725;28;20023;-75
2021/06/08 09:47:59;;;;;;;4.30;2.90;;;;;;;;;;5110869;28;20008;-73
2021/06/08 09:50:32;;;;;;;3.63;3.03;;;;;;;;;;5109391;28;20032;-76
2021/06/08 09:53:16;;;;;;;4.65;3.10;;;;;;;;;;5109224;28;20028;-76
2021/06/08 09:55:48;;;;;;;4.38;3.40;;;;;;;;;;5109380;28;20470;-76
2021/06/08 09:58:14;;;;;;;9.85;3.78;;;;;;;;;;5109335;28;20027;-76
2021/06/08 10:00:39;;;;;;;4.85;3.30;;;;;;;;;;5109309;28;20069;-76
2021/06/08 10:03:05;;;;;;;2.95;2.70;;;;;;;;;;5110520;28;20078;-76
2021/06/08 10:05:31;;;;;;;3.58;3.28;;;;;;;;;;5110435;28;20107;-76
2021/06/08 10:08:00;;;;;;;3.67;3.30;;;;;;;;;;5109106;28;20398;-76
2021/06/08 10:10:33;;;;;;;3.15;2.88;;;;;;;;;;5109176;28;20432;-76
2021/06/08 10:13:02;;;;;;;3.28;2.90;;;;;;;;;;5109059;28;20466;-76
2021/06/08 10:15:29;;;;;;;3.50;3.20;;;;;;;;;;5109013;28;20023;-76
2021/06/08 10:17:55;;;;;;;3.10;2.90;;;;;;;;;;5109015;28;20081;-76
2021/06/08 10:20:22;;;;;;;5.97;3.05;;;;;;;;;;5109031;28;20024;-76
2021/06/08 10:22:47;;;;;;;2.97;2.78;;;;;;;;;;5108901;28;20489;-76
2021/06/08 10:25:13;;;;;;;9.02;3.97;;;;;;;;;;5110001;28;20020;-76
2021/06/08 10:27:39;;;;;;;3.50;3.20;;;;;;;;;;5110020;28;20096;-76
2021/06/08 10:30:05;;;;;;;5.85;3.60;;;;;;;;;;5110028;28;20023;-76
2021/06/08 10:32:31;;;;;;;3.33;3.13;;;;;;;;;;5108241;28;20051;-76
2021/06/08 10:34:56;;;;;;;4.07;3.05;;;;;;;;;;5110114;28;20486;-76
2021/06/08 10:37:22;;;;;;;3.63;3.42;;;;;;;;;;5108563;28;20516;-76
2021/06/08 10:39:54;;;;;;;4.53;3.05;;;;;;;;;;5108680;28;20024;-76
2021/06/08 10:42:19;;;;;;;4.10;3.08;;;;;;;;;;5108497;28;20019;-76
2021/06/08 10:44:44;;;;;;;3.38;3.08;;;;;;;;;;5103668;28;20136;-76
2021/06/08 10:47:32;;;;;;;5.95;3.42;;;;;;;;;;5096089;28;20047;-76
2021/06/08 10:49:58;;;;;;;3.30;3.10;;;;;;;;;;5096269;28;20428;-76
2021/06/08 10:52:25;;;;;;;3.67;3.10;;;;;;;;;;5095861;28;20008;-76
2021/06/08 10:54:52;;;;;;;3.50;3.30;;;;;;;;;;5094754;28;20075;-76
2021/06/08 10:57:18;;;;;;;5.20;4.00;;;;;;;;;;5077894;28;20016;-75
2021/06/08 10:59:47;;;;;;;10.73;4.05;;;;;;;;;;5094741;28;20051;-75
2021/06/08 11:02:33;;;;;;;5.65;3.53;;;;;;;;;;5094597;28;20470;-75
2021/06/08 11:04:59;;;;;;;3.20;3.00;;;;;;;;;;5094536;28;20032;-75
2021/06/08 11:07:43;;;;;;;3.90;3.47;;;;;;;;;;5094482;28;20020;-75
2021/06/08 11:10:30;;;;;;;3.45;3.15;;;;;;;;;;5094268;28;20032;-75
2021/06/08 11:13:08;;;;;;;5.70;3.08;;;;;;;;;;5095633;28;20031;-75
2021/06/08 11:16:02;;;;;;;4.53;3.22;;;;;;;;;;5095478;28;20475;-75
2021/06/08 11:21:57;;;;;;;3.65;3.17;;;;;;;;;;5050542;28;20051;-75
2021/06/08 11:24:35;;;;;;;3.03;2.80;;;;;;;;;;5036224;28;20045;-75
2021/06/08 11:27:00;;;;;;;3.03;2.88;;;;;;;;;;5052580;28;20044;-76
2021/06/08 11:29:44;;;;;;;3.00;2.90;;;;;;;;;;5052784;28;20024;-76
2021/06/08 11:32:10;;;;;;;2.67;2.58;;;;;;;;;;5052604;28;20115;-75
2021/06/08 11:35:04;;;;;;;4.43;2.55;;;;;;;;;;5035906;28;20052;-76
2021/06/08 11:37:49;;;;;;;2.65;2.55;;;;;;;;;;5052973;28;20059;-76
2021/06/08 11:40:33;;;;;;;2.72;2.58;;;;;;;;;;5052576;28;20556;-76
2021/06/08 11:42:59;;;;;;;4.22;2.42;;;;;;;;;;5052692;28;20032;-76
2021/06/08 11:45:28;;;;;;;2.80;2.60;;;;;;;;;;5052186;28;20090;-75
2021/06/08 11:47:54;;;;;;;98.97;5.57;;;;;;;;;;5052797;28;20522;-76
2021/06/08 11:50:38;;;;;;;2.97;2.70;;;;;;;;;;5035823;28;20025;-76
2021/06/08 11:53:05;;;;;;;2.22;2.13;;;;;;;;;;5052167;28;20044;-76
2021/06/08 11:55:31;;;;;;;2.53;2.33;;;;;;;;;;5052088;28;20032;-75
2021/06/08 11:57:56;;;;;;;2.67;2.58;;;;;;;;;;5054260;28;20029;-76
2021/06/08 12:00:41;;;;;;;2.92;2.72;;;;;;;;;;5093462;28;20454;-76
2021/06/08 12:03:28;;;;;;;4.45;2.80;;;;;;;;;;5094676;28;20024;-75
2021/06/08 12:05:54;;;;;;;2.90;2.80;;;;;;;;;;5094650;28;20039;-75
2021/06/08 12:08:23;;;;;;;2.92;2.72;;;;;;;;;;5094605;28;20028;-76
2021/06/08 12:10:50;;;;;;;3.50;3.20;;;;;;;;;;5093177;28;20027;-76
2021/06/08 12:13:17;;;;;;;2.90;2.75;;;;;;;;;;5094342;28;20027;-76
2021/06/08 12:15:46;;;;;;;3.03;2.90;;;;;;;;;;5093056;28;20028;-76
2021/06/08 12:18:12;;;;;;;2.95;2.67;;;;;;;;;;5094332;28;20028;-76
2021/06/08 12:20:39;;;;;;;3.08;2.80;;;;;;;;;;5094158;28;20020;-76
2021/06/08 12:23:05;;;;;;;2.90;2.70;;;;;;;;;;5094313;28;20490;-76
2021/06/08 12:25:30;;;;;;;3.03;2.83;;;;;;;;;;5094165;28;20023;-76
2021/06/08 12:27:56;;;;;;;3.17;3.00;;;;;;;;;;5092981;28;20036;-76
2021/06/08 12:30:21;;;;;;;2.88;2.78;;;;;;;;;;5092849;28;20031;-76
2021/06/08 12:32:51;;;;;;;2.58;2.47;;;;;;;;;;5097448;28;20035;-76
2021/06/08 12:35:28;;;;;;;2.85;2.42;;;;;;;;;;5096979;28;20036;-76
2021/06/08 12:38:06;;;;;;;2.90;2.70;;;;;;;;;;5092724;28;20024;-75
2021/06/08 12:40:31;;;;;;;2.58;2.38;;;;;;;;;;5092602;28;20531;-76
2021/06/08 12:42:59;;;;;;;3.00;2.80;;;;;;;;;;5093875;28;20047;-76
2021/06/08 12:45:25;;;;;;;2.95;2.78;;;;;;;;;;5092608;28;20114;-75
2021/06/08 12:47:50;;;;;;;2.75;2.65;;;;;;;;;;5092509;28;20518;-75
2021/06/08 12:50:21;;;;;;;2.30;2.10;;;;;;;;;;5093860;28;20024;-76
2021/06/08 12:52:55;;;;;;;3.00;2.80;;;;;;;;;;5093613;28;20028;-76
2021/06/08 12:55:20;;;;;;;3.60;3.40;;;;;;;;;;5093608;28;20042;-75
2021/06/08 12:57:46;;;;;;;4.93;3.55;;;;;;;;;;5093719;28;20466;-76
2021/06/08 13:00:18;;;;;;;5.93;3.90;;;;;;;;;;5092300;28;20554;-76
2021/06/08 13:02:44;;;;;;;4.57;3.33;;;;;;;;;;5093690;28;20031;-76
2021/06/08 13:05:11;;;;;;;3.38;3.10;;;;;;;;;;5093591;28;20451;-76
2021/06/08 13:07:38;;;;;;;3.75;3.45;;;;;;;;;;5092011;28;20039;-76
2021/06/08 13:10:04;;;;;;;3.25;3.05;;;;;;;;;;5092327;28;20028;-76
2021/06/08 13:12:40;;;;;;;3.28;2.97;;;;;;;;;;5091902;28;20032;-76
2021/06/08 13:15:06;;;;;;;2.67;2.47;;;;;;;;;;5092084;28;20032;-76
2021/06/08 13:17:32;;;;;;;3.35;3.15;;;;;;;;;;5091816;28;20534;-76
2021/06/08 13:19:58;;;;;;;4.07;3.50;;;;;;;;;;5092127;28;20051;-76
2021/06/08 13:22:24;;;;;;;3.70;3.38;;;;;;;;;;5093291;28;20455;-76
2021/06/08 13:24:51;;;;;;;3.30;3.10;;;;;;;;;;5093198;28;20024;-76
2021/06/08 13:27:20;;;;;;;3.58;3.30;;;;;;;;;;5093155;28;20015;-76
2021/06/08 13:29:46;;;;;;;4.50;4.10;;;;;;;;;;5093148;28;20485;-76
2021/06/08 13:32:30;;;;;;;4.15;3.20;;;;;;;;;;5093309;28;20020;-76
2021/06/08 13:35:09;;;;;;;4.38;3.10;;;;;;;;;;5091386;28;20387;-76
2021/06/08 13:37:36;;;;;;;3.58;3.28;;;;;;;;;;5075279;28;20089;-76
2021/06/08 13:40:11;;;;;;;3.25;2.80;;;;;;;;;;5091819;28;20024;-76
2021/06/08 13:42:36;;;;;;;2.88;2.67;;;;;;;;;;5091468;28;20063;-76
2021/06/08 13:45:09;;;;;;;2.72;2.53;;;;;;;;;;5092373;28;20398;-76
2021/06/08 13:47:38;;;;;;;3.15;2.88;;;;;;;;;;5092017;28;20660;-76
2021/06/08 13:50:06;;;;;;;3.20;2.85;;;;;;;;;;5093530;28;20020;-76
2021/06/08 13:53:01;;;;;;;2.80;2.60;;;;;;;;;;5075217;28;20054;-76
2021/06/08 13:55:30;;;;;;;2.35;2.25;;;;;;;;;;5091529;28;20397;-76
2021/06/08 14:01:06;;;;;;;3.20;2.88;;;;;;;;;;5093645;28;20051;-76
2021/06/08 14:03:33;;;;;;;2.70;2.50;;;;;;;;;;5093235;28;20032;-76
2021/06/08 14:06:14;;;;;;;2.72;2.53;;;;;;;;;;5093120;28;20024;-76
2021/06/08 14:08:40;;;;;;;2.65;2.45;;;;;;;;;;5092015;28;20498;-76
2021/06/08 14:11:06;;;;;;;3.78;2.70;;;;;;;;;;5092103;28;20024;-75
2021/06/08 14:13:35;;;;;;;2.63;2.40;;;;;;;;;;5091334;28;20062;-74
2021/06/08 14:16:00;;;;;;;2.50;2.30;;;;;;;;;;5093217;28;20020;-74
2021/06/08 14:18:27;;;;;;;4.00;2.60;;;;;;;;;;5093326;28;20335;-76
2021/06/08 14:20:53;;;;;;;2.90;2.70;;;;;;;;;;5095703;28;20024;-75
2021/06/08 14:23:25;;;;;;;3.00;2.90;;;;;;;;;;5097496;28;20061;-75
2021/06/08 14:25:52;;;;;;;2.80;2.63;;;;;;;;;;5096795;28;20016;-75
2021/06/08 14:28:18;;;;;;;2.40;2.30;;;;;;;;;;5097107;28;20043;-75
2021/06/08 14:30:49;;;;;;;3.30;2.67;;;;;;;;;;5096800;28;20028;-76
2021/06/08 14:33:15;;;;;;;2.85;2.28;;;;;;;;;;5096334;28;20028;-75
2021/06/08 14:35:40;;;;;;;2.60;2.50;;;;;;;;;;5096195;28;20043;-75
2021/06/08 14:38:06;;;;;;;2.53;2.42;;;;;;;;;;5096403;28;20470;-75
2021/06/08 14:40:31;;;;;;;2.20;2.10;;;;;;;;;;5096281;28;20020;-75
2021/06/08 14:42:56;;;;;;;2.50;2.40;;;;;;;;;;5094957;28;20034;-75
2021/06/08 14:45:22;;;;;;;2.38;2.20;;;;;;;;;;5094919;28;20023;-75
2021/06/08 14:47:48;;;;;;;2.47;2.38;;;;;;;;;;5096258;28;20115;-75
2021/06/08 14:50:14;;;;;;;4.28;2.28;;;;;;;;;;5094846;28;20026;-75
2021/06/08 14:52:39;;;;;;;2.20;2.10;;;;;;;;;;5095906;28;20035;-76
2021/06/08 14:55:05;;;;;;;1.95;1.85;;;;;;;;;;5096012;28;20024;-77
2021/06/08 14:57:31;;;;;;;2.25;2.15;;;;;;;;;;5094875;28;20394;-77